sensor_id;sensor_type;location;lat;lon;timestamp;pressure;altitude;pressure_sealevel;temperature;humidity
78313;BME280;67568;47.438;21.408;2023-11-21T00:00:58;100032.19;;;7.73;96.00
78313;BME280;67568;47.438;21.408;2023-11-21T00:03:24;100032.19;;;7.73;95.63
78313;BME280;67568;47.438;21.408;2023-11-21T00:05:51;100021.66;;;7.80;95.75
78313;BME280;67568;47.438;21.408;2023-11-21T00:08:18;100023.50;;;7.84;95.36
78313;BME280;67568;47.438;21.408;2023-11-21T00:10:45;100025.34;;;7.94;95.18
78313;BME280;67568;47.438;21.408;2023-11-21T00:13:11;100023.63;;;7.98;94.59
78313;BME280;67568;47.438;21.408;2023-11-21T00:15:39;100028.78;;;8.05;94.37
78313;BME280;67568;47.438;21.408;2023-11-21T00:18:06;100029.88;;;8.09;94.07
78313;BME280;67568;47.438;21.408;2023-11-21T00:20:33;100028.53;;;8.06;94.55
78313;BME280;67568;47.438;21.408;2023-11-21T00:23:00;100030.63;;;8.15;94.36
78313;BME280;67568;47.438;21.408;2023-11-21T00:25:26;100029.50;;;8.16;94.29
78313;BME280;67568;47.438;21.408;2023-11-21T00:27:55;100032.50;;;8.19;94.19
78313;BME280;67568;47.438;21.408;2023-11-21T00:30:22;100032.22;;;8.21;93.40
78313;BME280;67568;47.438;21.408;2023-11-21T00:32:49;100033.34;;;8.20;93.45
78313;BME280;67568;47.438;21.408;2023-11-21T00:35:16;100038.28;;;8.23;93.63
78313;BME280;67568;47.438;21.408;2023-11-21T00:37:42;100037.19;;;8.19;93.03
78313;BME280;67568;47.438;21.408;2023-11-21T00:40:10;100042.13;;;8.22;93.03
78313;BME280;67568;47.438;21.408;2023-11-21T00:42:37;100050.94;;;8.24;92.60
78313;BME280;67568;47.438;21.408;2023-11-21T00:45:06;100050.72;;;8.20;93.22
78313;BME280;67568;47.438;21.408;2023-11-21T00:47:33;100049.81;;;8.25;92.66
78313;BME280;67568;47.438;21.408;2023-11-21T00:50:00;100045.41;;;8.24;92.91
78313;BME280;67568;47.438;21.408;2023-11-21T00:52:27;100041.03;;;8.23;92.68
78313;BME280;67568;47.438;21.408;2023-11-21T00:54:54;100039.38;;;8.22;93.15
78313;BME280;67568;47.438;21.408;2023-11-21T00:57:21;100044.66;;;8.18;92.53
78313;BME280;67568;47.438;21.408;2023-11-21T00:59:47;100036.75;;;8.11;92.94
78313;BME280;67568;47.438;21.408;2023-11-21T01:02:14;100026.81;;;8.10;92.66
78313;BME280;67568;47.438;21.408;2023-11-21T01:04:41;100037.59;;;8.07;93.41
78313;BME280;67568;47.438;21.408;2023-11-21T01:07:08;100042.91;;;8.03;92.48
78313;BME280;67568;47.438;21.408;2023-11-21T01:09:34;100040.25;;;7.93;93.40
78313;BME280;67568;47.438;21.408;2023-11-21T01:12:01;100035.84;;;7.92;92.95
78313;BME280;67568;47.438;21.408;2023-11-21T01:14:28;100036.44;;;7.89;93.35
78313;BME280;67568;47.438;21.408;2023-11-21T01:16:55;100038.19;;;7.80;93.62
78313;BME280;67568;47.438;21.408;2023-11-21T01:19:24;100039.28;;;7.79;93.71
78313;BME280;67568;47.438;21.408;2023-11-21T01:21:50;100034.97;;;7.68;93.99
78313;BME280;67568;47.438;21.408;2023-11-21T01:24:17;100040.47;;;7.73;93.55
78313;BME280;67568;47.438;21.408;2023-11-21T01:26:44;100031.75;;;7.60;94.36
78313;BME280;67568;47.438;21.408;2023-11-21T01:29:13;100040.25;;;7.64;94.27
78313;BME280;67568;47.438;21.408;2023-11-21T01:31:40;100034.78;;;7.59;93.86
78313;BME280;67568;47.438;21.408;2023-11-21T01:34:07;100027.41;;;7.54;93.42
78313;BME280;67568;47.438;21.408;2023-11-21T01:36:34;100029.63;;;7.52;94.14
78313;BME280;67568;47.438;21.408;2023-11-21T01:39:01;100031.84;;;7.50;93.47
78313;BME280;67568;47.438;21.408;2023-11-21T01:41:28;100031.31;;;7.48;94.42
78313;BME280;67568;47.438;21.408;2023-11-21T01:43:55;100044.03;;;7.44;93.34
78313;BME280;67568;47.438;21.408;2023-11-21T01:46:22;100032.47;;;7.42;93.38
78313;BME280;67568;47.438;21.408;2023-11-21T01:48:52;100032.19;;;7.43;94.38
78313;BME280;67568;47.438;21.408;2023-11-21T01:51:19;100028.13;;;7.36;93.90
78313;BME280;67568;47.438;21.408;2023-11-21T01:53:46;100032.50;;;7.37;93.69
78313;BME280;67568;47.438;21.408;2023-11-21T01:56:13;100025.34;;;7.36;93.77
78313;BME280;67568;47.438;21.408;2023-11-21T01:58:41;100013.84;;;7.29;93.76
78313;BME280;67568;47.438;21.408;2023-11-21T02:01:08;100010.56;;;7.27;94.10
78313;BME280;67568;47.438;21.408;2023-11-21T02:03:35;100009.47;;;7.22;94.34
78313;BME280;67568;47.438;21.408;2023-11-21T02:06:05;100005.38;;;7.20;93.57
78313;BME280;67568;47.438;21.408;2023-11-21T02:08:32;100006.47;;;7.19;93.74
78313;BME280;67568;47.438;21.408;2023-11-21T02:11:01;100005.66;;;7.18;93.50
78313;BME280;67568;47.438;21.408;2023-11-21T02:13:28;100007.38;;;7.14;93.65
78313;BME280;67568;47.438;21.408;2023-11-21T02:15:54;99996.88;;;7.11;94.63
78313;BME280;67568;47.438;21.408;2023-11-21T02:18:21;99999.66;;;7.11;93.25
78313;BME280;67568;47.438;21.408;2023-11-21T02:20:48;100002.97;;;7.08;93.55
78313;BME280;67568;47.438;21.408;2023-11-21T02:23:15;99999.72;;;7.06;94.00
78313;BME280;67568;47.438;21.408;2023-11-21T02:25:45;100004.69;;;7.04;93.66
78313;BME280;67568;47.438;21.408;2023-11-21T02:28:11;99997.56;;;6.98;94.30
78313;BME280;67568;47.438;21.408;2023-11-21T02:30:38;99995.38;;;6.95;93.78
78313;BME280;67568;47.438;21.408;2023-11-21T02:33:05;99998.16;;;6.90;93.83
78313;BME280;67568;47.438;21.408;2023-11-21T02:35:32;99997.38;;;6.84;94.10
78313;BME280;67568;47.438;21.408;2023-11-21T02:37:59;99999.63;;;6.77;94.96
78313;BME280;67568;47.438;21.408;2023-11-21T02:40:25;99996.06;;;6.76;94.17
78313;BME280;67568;47.438;21.408;2023-11-21T02:42:53;99996.34;;;6.75;94.48
78313;BME280;67568;47.438;21.408;2023-11-21T02:45:21;99992.78;;;6.74;93.91
78313;BME280;67568;47.438;21.408;2023-11-21T02:47:48;99993.38;;;6.66;95.08
78313;BME280;67568;47.438;21.408;2023-11-21T02:50:16;99989.84;;;6.61;94.23
78313;BME280;67568;47.438;21.408;2023-11-21T02:52:45;99995.63;;;6.59;94.19
78313;BME280;67568;47.438;21.408;2023-11-21T02:55:12;100002.50;;;6.57;95.04
78313;BME280;67568;47.438;21.408;2023-11-21T02:57:39;100001.13;;;6.54;94.25
78313;BME280;67568;47.438;21.408;2023-11-21T03:00:06;99998.13;;;6.56;93.89
78313;BME280;67568;47.438;21.408;2023-11-21T03:02:34;100000.31;;;6.53;94.67
78313;BME280;67568;47.438;21.408;2023-11-21T03:05:01;100006.69;;;6.49;95.32
78313;BME280;67568;47.438;21.408;2023-11-21T03:07:27;100015.50;;;6.46;93.98
78313;BME280;67568;47.438;21.408;2023-11-21T03:09:54;100010.84;;;6.46;94.00
78313;BME280;67568;47.438;21.408;2023-11-21T03:12:21;100010.53;;;6.48;93.89
78313;BME280;67568;47.438;21.408;2023-11-21T03:14:48;100019.63;;;6.48;93.98
78313;BME280;67568;47.438;21.408;2023-11-21T03:17:14;100018.69;;;6.08;96.52
78313;BME280;67568;47.438;21.408;2023-11-21T03:19:41;100011.53;;;6.13;95.93
78313;BME280;67568;47.438;21.408;2023-11-21T03:22:08;100015.91;;;6.19;96.47
78313;BME280;67568;47.438;21.408;2023-11-21T03:24:35;100003.56;;;6.11;97.09
78313;BME280;67568;47.438;21.408;2023-11-21T03:27:02;99994.72;;;6.14;95.46
78313;BME280;67568;47.438;21.408;2023-11-21T03:29:28;99994.97;;;6.23;95.88
78313;BME280;67568;47.438;21.408;2023-11-21T03:31:55;99986.94;;;6.31;94.55
78313;BME280;67568;47.438;21.408;2023-11-21T03:34:26;99989.69;;;6.37;94.72
78313;BME280;67568;47.438;21.408;2023-11-21T03:36:54;99994.63;;;6.40;94.10
78313;BME280;67568;47.438;21.408;2023-11-21T03:39:21;99998.72;;;6.42;93.90
78313;BME280;67568;47.438;21.408;2023-11-21T03:41:48;99989.63;;;6.47;93.98
78313;BME280;67568;47.438;21.408;2023-11-21T03:44:15;99996.78;;;6.48;94.48
78313;BME280;67568;47.438;21.408;2023-11-21T03:46:42;99989.38;;;6.43;94.24
78313;BME280;67568;47.438;21.408;2023-11-21T03:49:11;99997.59;;;6.48;94.68
78313;BME280;67568;47.438;21.408;2023-11-21T03:51:38;99991.00;;;6.49;93.24
78313;BME280;67568;47.438;21.408;2023-11-21T03:54:05;99988.25;;;6.49;93.03
78313;BME280;67568;47.438;21.408;2023-11-21T03:56:31;99990.69;;;6.51;93.90
78313;BME280;67568;47.438;21.408;2023-11-21T03:58:58;99987.09;;;6.56;92.80
78313;BME280;67568;47.438;21.408;2023-11-21T04:01:25;99979.41;;;6.58;93.59
78313;BME280;67568;47.438;21.408;2023-11-21T04:03:52;99978.56;;;6.57;93.84
78313;BME280;67568;47.438;21.408;2023-11-21T04:06:19;99978.53;;;6.62;93.02
78313;BME280;67568;47.438;21.408;2023-11-21T04:08:46;99977.94;;;6.65;93.61
78313;BME280;67568;47.438;21.408;2023-11-21T04:11:12;99973.53;;;6.69;93.54
78313;BME280;67568;47.438;21.408;2023-11-21T04:13:40;99973.25;;;6.71;93.34
78313;BME280;67568;47.438;21.408;2023-11-21T04:16:08;99975.72;;;6.72;91.83
78313;BME280;67568;47.438;21.408;2023-11-21T04:18:36;99975.16;;;6.75;93.17
78313;BME280;67568;47.438;21.408;2023-11-21T04:21:07;99972.94;;;6.78;91.44
78313;BME280;67568;47.438;21.408;2023-11-21T04:23:34;99975.06;;;6.86;91.47
78313;BME280;67568;47.438;21.408;2023-11-21T04:26:01;99974.50;;;6.89;92.14
78313;BME280;67568;47.438;21.408;2023-11-21T04:28:28;99978.59;;;6.91;91.05
78313;BME280;67568;47.438;21.408;2023-11-21T04:30:56;99977.78;;;6.91;91.31
78313;BME280;67568;47.438;21.408;2023-11-21T04:33:23;99979.69;;;6.95;90.70
78313;BME280;67568;47.438;21.408;2023-11-21T04:35:50;99981.34;;;6.91;91.96
78313;BME280;67568;47.438;21.408;2023-11-21T04:38:17;99978.66;;;6.86;90.83
78313;BME280;67568;47.438;21.408;2023-11-21T04:40:43;99971.78;;;6.84;91.83
78313;BME280;67568;47.438;21.408;2023-11-21T04:43:10;99971.78;;;6.84;92.12
78313;BME280;67568;47.438;21.408;2023-11-21T04:45:37;99976.28;;;6.69;92.74
78313;BME280;67568;47.438;21.408;2023-11-21T04:48:04;99980.59;;;6.41;94.18
78313;BME280;67568;47.438;21.408;2023-11-21T04:50:31;99983.84;;;6.48;93.19
78313;BME280;67568;47.438;21.408;2023-11-21T04:52:57;99984.03;;;6.13;93.75
78313;BME280;67568;47.438;21.408;2023-11-21T04:55:24;99987.50;;;6.34;94.52
78313;BME280;67568;47.438;21.408;2023-11-21T04:57:51;99993.06;;;6.23;94.23
78313;BME280;67568;47.438;21.408;2023-11-21T05:00:18;99993.41;;;6.06;94.89
78313;BME280;67568;47.438;21.408;2023-11-21T05:02:45;99988.75;;;6.02;95.02
78313;BME280;67568;47.438;21.408;2023-11-21T05:05:12;99990.66;;;6.06;95.36
78313;BME280;67568;47.438;21.408;2023-11-21T05:07:39;100001.69;;;6.01;95.89
78313;BME280;67568;47.438;21.408;2023-11-21T05:10:07;100028.91;;;5.98;94.29
78313;BME280;67568;47.438;21.408;2023-11-21T05:12:34;100025.88;;;5.94;96.20
78313;BME280;67568;47.438;21.408;2023-11-21T05:15:01;100015.16;;;5.98;95.21
78313;BME280;67568;47.438;21.408;2023-11-21T05:17:27;100004.16;;;5.98;95.37
78313;BME280;67568;47.438;21.408;2023-11-21T05:19:54;100011.56;;;6.07;93.88
78313;BME280;67568;47.438;21.408;2023-11-21T05:22:21;100006.66;;;5.89;93.85
78313;BME280;67568;47.438;21.408;2023-11-21T05:24:48;100001.97;;;5.90;94.17
78313;BME280;67568;47.438;21.408;2023-11-21T05:27:15;100009.66;;;5.88;94.48
78313;BME280;67568;47.438;21.408;2023-11-21T05:29:41;100025.59;;;5.85;93.97
78313;BME280;67568;47.438;21.408;2023-11-21T05:32:08;100022.34;;;5.78;94.56
78313;BME280;67568;47.438;21.408;2023-11-21T05:34:35;100018.16;;;5.86;95.52
78313;BME280;67568;47.438;21.408;2023-11-21T05:37:02;100030.03;;;5.66;96.54
78313;BME280;67568;47.438;21.408;2023-11-21T05:39:29;100028.13;;;5.67;95.86
78313;BME280;67568;47.438;21.408;2023-11-21T05:41:55;100031.69;;;5.72;94.73
78313;BME280;67568;47.438;21.408;2023-11-21T05:44:22;100037.47;;;5.71;96.27
78313;BME280;67568;47.438;21.408;2023-11-21T05:46:49;100033.91;;;5.55;95.31
78313;BME280;67568;47.438;21.408;2023-11-21T05:49:16;100041.06;;;5.61;95.69
78313;BME280;67568;47.438;21.408;2023-11-21T05:51:42;100042.13;;;5.70;95.17
78313;BME280;67568;47.438;21.408;2023-11-21T05:54:09;100039.69;;;5.58;95.85
78313;BME280;67568;47.438;21.408;2023-11-21T05:56:36;100044.38;;;5.53;95.45
78313;BME280;67568;47.438;21.408;2023-11-21T05:59:03;100049.28;;;5.66;96.07
78313;BME280;67568;47.438;21.408;2023-11-21T06:01:29;100046.78;;;5.80;94.66
78313;BME280;67568;47.438;21.408;2023-11-21T06:03:56;100046.78;;;5.80;95.09
78313;BME280;67568;47.438;21.408;2023-11-21T06:06:23;100044.34;;;5.73;94.87
78313;BME280;67568;47.438;21.408;2023-11-21T06:08:50;100049.00;;;5.73;94.51
78313;BME280;67568;47.438;21.408;2023-11-21T06:11:17;100059.72;;;5.74;95.83
78313;BME280;67568;47.438;21.408;2023-11-21T06:13:44;100059.72;;;5.74;94.91
78313;BME280;67568;47.438;21.408;2023-11-21T06:16:10;100061.38;;;5.75;94.51
78313;BME280;67568;47.438;21.408;2023-11-21T06:18:37;100054.22;;;5.74;96.67
78313;BME280;67568;47.438;21.408;2023-11-21T06:21:04;100062.16;;;5.86;95.43
78313;BME280;67568;47.438;21.408;2023-11-21T06:23:31;100060.25;;;5.97;95.89
78313;BME280;67568;47.438;21.408;2023-11-21T06:25:58;100059.72;;;5.84;95.31
78313;BME280;67568;47.438;21.408;2023-11-21T06:28:25;100065.22;;;5.74;96.34
78313;BME280;67568;47.438;21.408;2023-11-21T06:30:52;100070.16;;;5.77;97.29
78313;BME280;67568;47.438;21.408;2023-11-21T06:33:19;100074.00;;;5.76;96.41
78313;BME280;67568;47.438;21.408;2023-11-21T06:35:46;100070.69;;;5.90;95.83
78313;BME280;67568;47.438;21.408;2023-11-21T06:38:13;100067.13;;;6.04;95.17
78313;BME280;67568;47.438;21.408;2023-11-21T06:40:39;100067.38;;;6.03;95.97
78313;BME280;67568;47.438;21.408;2023-11-21T06:43:06;100075.34;;;6.10;95.22
78313;BME280;67568;47.438;21.408;2023-11-21T06:45:33;100074.78;;;6.18;95.42
78313;BME280;67568;47.438;21.408;2023-11-21T06:48:00;100066.28;;;6.09;96.40
78313;BME280;67568;47.438;21.408;2023-11-21T06:50:27;100070.09;;;6.18;95.82
78313;BME280;67568;47.438;21.408;2023-11-21T06:52:54;100067.91;;;6.15;95.80
78313;BME280;67568;47.438;21.408;2023-11-21T06:55:20;100070.38;;;6.17;96.87
78313;BME280;67568;47.438;21.408;2023-11-21T06:57:47;100075.84;;;6.27;94.74
78313;BME280;67568;47.438;21.408;2023-11-21T07:00:16;100078.31;;;6.28;94.64
78313;BME280;67568;47.438;21.408;2023-11-21T07:02:43;100074.44;;;6.35;95.98
78313;BME280;67568;47.438;21.408;2023-11-21T07:05:10;100082.97;;;6.38;94.19
78313;BME280;67568;47.438;21.408;2023-11-21T07:07:37;100079.44;;;6.27;95.51
78313;BME280;67568;47.438;21.408;2023-11-21T07:10:04;100081.59;;;6.36;94.87
78313;BME280;67568;47.438;21.408;2023-11-21T07:12:31;100083.84;;;6.23;95.52
78313;BME280;67568;47.438;21.408;2023-11-21T07:14:58;100087.09;;;6.36;95.64
78313;BME280;67568;47.438;21.408;2023-11-21T07:17:25;100083.81;;;6.34;94.55
78313;BME280;67568;47.438;21.408;2023-11-21T07:19:52;100085.72;;;6.33;95.23
78313;BME280;67568;47.438;21.408;2023-11-21T07:22:18;100092.59;;;6.36;95.28
78313;BME280;67568;47.438;21.408;2023-11-21T07:24:45;100099.47;;;6.43;94.44
78313;BME280;67568;47.438;21.408;2023-11-21T07:27:15;100092.00;;;6.49;95.08
78313;BME280;67568;47.438;21.408;2023-11-21T07:29:41;100089.22;;;6.54;93.84
78313;BME280;67568;47.438;21.408;2023-11-21T07:32:08;100085.63;;;6.59;93.20
78313;BME280;67568;47.438;21.408;2023-11-21T07:34:36;100100.75;;;6.61;93.76
78313;BME280;67568;47.438;21.408;2023-11-21T07:37:03;100098.22;;;6.75;93.43
78313;BME280;67568;47.438;21.408;2023-11-21T07:39:30;100093.50;;;6.81;94.05
78313;BME280;67568;47.438;21.408;2023-11-21T07:41:56;100096.53;;;6.79;93.80
78313;BME280;67568;47.438;21.408;2023-11-21T07:44:23;100104.47;;;6.91;93.66
78313;BME280;67568;47.438;21.408;2023-11-21T07:46:50;100105.47;;;7.05;92.47
78313;BME280;67568;47.438;21.408;2023-11-21T07:49:17;100102.69;;;7.10;93.27
78313;BME280;67568;47.438;21.408;2023-11-21T07:51:44;100111.13;;;7.29;91.76
78313;BME280;67568;47.438;21.408;2023-11-21T07:54:11;100100.31;;;7.38;91.76
78313;BME280;67568;47.438;21.408;2023-11-21T07:56:38;100104.34;;;7.51;91.93
78313;BME280;67568;47.438;21.408;2023-11-21T07:59:05;100105.66;;;7.58;91.19
78313;BME280;67568;47.438;21.408;2023-11-21T08:01:32;100106.09;;;7.71;91.62
78313;BME280;67568;47.438;21.408;2023-11-21T08:03:59;100111.03;;;7.74;90.89
78313;BME280;67568;47.438;21.408;2023-11-21T08:06:29;100116.47;;;7.84;90.56
78313;BME280;67568;47.438;21.408;2023-11-21T08:08:57;100097.94;;;7.89;89.42
78313;BME280;67568;47.438;21.408;2023-11-21T08:11:23;100112.59;;;7.85;90.28
78313;BME280;67568;47.438;21.408;2023-11-21T08:13:50;100105.72;;;8.11;89.16
78313;BME280;67568;47.438;21.408;2023-11-21T08:16:17;100110.03;;;7.94;88.93
78313;BME280;67568;47.438;21.408;2023-11-21T08:18:44;100113.81;;;8.03;89.66
78313;BME280;67568;47.438;21.408;2023-11-21T08:21:12;100125.56;;;8.14;89.19
78313;BME280;67568;47.438;21.408;2023-11-21T08:23:40;100122.47;;;8.20;89.16
78313;BME280;67568;47.438;21.408;2023-11-21T08:26:06;100120.53;;;8.21;89.55
78313;BME280;67568;47.438;21.408;2023-11-21T08:28:33;100122.41;;;8.25;88.82
78313;BME280;67568;47.438;21.408;2023-11-21T08:31:01;100124.22;;;8.35;88.66
78313;BME280;67568;47.438;21.408;2023-11-21T08:33:27;100116.69;;;8.17;89.07
78313;BME280;67568;47.438;21.408;2023-11-21T08:35:54;100124.78;;;8.37;89.15
78313;BME280;67568;47.438;21.408;2023-11-21T08:38:21;100119.00;;;8.33;89.05
78313;BME280;67568;47.438;21.408;2023-11-21T08:40:48;100122.44;;;8.49;88.61
78313;BME280;67568;47.438;21.408;2023-11-21T08:43:18;100119.28;;;8.61;88.63
78313;BME280;67568;47.438;21.408;2023-11-21T08:45:45;100111.28;;;8.60;88.44
78313;BME280;67568;47.438;21.408;2023-11-21T08:48:12;100112.81;;;8.71;87.75
78313;BME280;67568;47.438;21.408;2023-11-21T08:50:44;100113.25;;;8.78;87.72
78313;BME280;67568;47.438;21.408;2023-11-21T08:53:11;100117.47;;;8.94;87.24
78313;BME280;67568;47.438;21.408;2023-11-21T08:55:46;100122.41;;;8.97;86.97
78313;BME280;67568;47.438;21.408;2023-11-21T08:58:23;100122.91;;;8.81;87.13
78313;BME280;67568;47.438;21.408;2023-11-21T09:00:58;100119.47;;;9.08;86.52
78313;BME280;67568;47.438;21.408;2023-11-21T09:13:09;100132.25;;;9.41;84.79
78313;BME280;67568;47.438;21.408;2023-11-21T09:15:37;100129.88;;;9.54;85.32
78313;BME280;67568;47.438;21.408;2023-11-21T09:18:06;100136.66;;;9.61;85.32
78313;BME280;67568;47.438;21.408;2023-11-21T09:20:42;100131.13;;;9.61;85.40
78313;BME280;67568;47.438;21.408;2023-11-21T09:23:09;100125.69;;;9.37;85.38
78313;BME280;67568;47.438;21.408;2023-11-21T09:58:52;100093.31;;;11.14;81.57
78313;BME280;67568;47.438;21.408;2023-11-21T10:01:21;100099.22;;;11.21;80.52
78313;BME280;67568;47.438;21.408;2023-11-21T10:03:51;100094.78;;;11.34;78.65
78313;BME280;67568;47.438;21.408;2023-11-21T10:06:18;100096.50;;;11.43;79.98
78313;BME280;67568;47.438;21.408;2023-11-21T10:08:45;100083.84;;;11.51;78.51
78313;BME280;67568;47.438;21.408;2023-11-21T10:11:24;100086.16;;;11.58;78.34
78313;BME280;67568;47.438;21.408;2023-11-21T10:17:25;100086.59;;;11.74;79.05
78313;BME280;67568;47.438;21.408;2023-11-21T10:19:54;100084.59;;;11.88;77.68
78313;BME280;67568;47.438;21.408;2023-11-21T10:22:22;100087.22;;;12.15;76.55
78313;BME280;67568;47.438;21.408;2023-11-21T10:24:51;100090.00;;;12.15;77.48
78313;BME280;67568;47.438;21.408;2023-11-21T10:27:19;100094.69;;;12.15;77.01
78313;BME280;67568;47.438;21.408;2023-11-21T10:29:46;100089.19;;;12.24;76.67
78313;BME280;67568;47.438;21.408;2023-11-21T10:32:13;100097.09;;;11.99;76.80
78313;BME280;67568;47.438;21.408;2023-11-21T10:34:40;100099.16;;;12.56;75.16
78313;BME280;67568;47.438;21.408;2023-11-21T10:37:11;100091.34;;;12.75;75.10
78313;BME280;67568;47.438;21.408;2023-11-21T10:39:39;100097.25;;;12.82;74.34
78313;BME280;67568;47.438;21.408;2023-11-21T10:42:08;100099.22;;;12.91;73.81
78313;BME280;67568;47.438;21.408;2023-11-21T10:44:35;100102.47;;;12.75;74.43
78313;BME280;67568;47.438;21.408;2023-11-21T10:56:39;100092.25;;;12.13;76.28
78313;BME280;67568;47.438;21.408;2023-11-21T10:59:12;100090.94;;;11.43;76.65
78313;BME280;67568;47.438;21.408;2023-11-21T11:01:45;100085.28;;;11.71;76.85
78313;BME280;67568;47.438;21.408;2023-11-21T11:04:13;100081.19;;;11.68;77.76
78313;BME280;67568;47.438;21.408;2023-11-21T11:06:42;100081.00;;;11.87;77.21
78313;BME280;67568;47.438;21.408;2023-11-21T11:12:42;100080.28;;;11.37;78.15
78313;BME280;67568;47.438;21.408;2023-11-21T11:15:13;100076.84;;;11.54;78.13
78313;BME280;67568;47.438;21.408;2023-11-21T11:31:14;100070.19;;;11.41;78.26
78313;BME280;67568;47.438;21.408;2023-11-21T11:33:59;100061.63;;;11.29;78.26
78313;BME280;67568;47.438;21.408;2023-11-21T11:36:47;100056.91;;;11.29;77.85
78313;BME280;67568;47.438;21.408;2023-11-21T11:39:50;100056.31;;;11.18;78.20
78313;BME280;67568;47.438;21.408;2023-11-21T11:42:17;100062.00;;;11.13;78.27
78313;BME280;67568;47.438;21.408;2023-11-21T11:52:37;100064.56;;;11.10;77.58
78313;BME280;67568;47.438;21.408;2023-11-21T11:55:12;100060.88;;;11.00;78.29
78313;BME280;67568;47.438;21.408;2023-11-21T12:01:06;100062.44;;;10.93;78.92
78313;BME280;67568;47.438;21.408;2023-11-21T12:03:34;100055.59;;;10.90;78.76
78313;BME280;67568;47.438;21.408;2023-11-21T12:06:02;100054.75;;;10.90;78.47
78313;BME280;67568;47.438;21.408;2023-11-21T12:08:30;100055.38;;;10.87;78.16
78313;BME280;67568;47.438;21.408;2023-11-21T12:10:57;100061.06;;;10.82;78.40
78313;BME280;67568;47.438;21.408;2023-11-21T12:13:24;100042.59;;;10.77;79.19
78313;BME280;67568;47.438;21.408;2023-11-21T12:15:51;100047.19;;;10.82;78.37
78313;BME280;67568;47.438;21.408;2023-11-21T12:18:17;100047.94;;;10.73;79.04
78313;BME280;67568;47.438;21.408;2023-11-21T12:30:34;100041.28;;;10.47;80.08
78313;BME280;67568;47.438;21.408;2023-11-21T12:33:02;100042.50;;;10.54;79.40
78313;BME280;67568;47.438;21.408;2023-11-21T12:38:51;100032.56;;;10.40;80.30
78313;BME280;67568;47.438;21.408;2023-11-21T12:41:18;100040.88;;;10.40;80.10
78313;BME280;67568;47.438;21.408;2023-11-21T12:43:44;100033.41;;;10.40;81.30
78313;BME280;67568;47.438;21.408;2023-11-21T12:46:12;100030.31;;;10.42;80.28
78313;BME280;67568;47.438;21.408;2023-11-21T12:48:39;100033.69;;;10.39;80.68
78313;BME280;67568;47.438;21.408;2023-11-21T12:51:06;100027.75;;;10.31;81.33
78313;BME280;67568;47.438;21.408;2023-11-21T12:53:33;100034.72;;;10.29;82.18
78313;BME280;67568;47.438;21.408;2023-11-21T12:56:00;100034.13;;;10.32;81.09
78313;BME280;67568;47.438;21.408;2023-11-21T12:58:26;100034.72;;;10.29;82.17
78313;BME280;67568;47.438;21.408;2023-11-21T13:00:53;100033.25;;;10.18;83.14
78313;BME280;67568;47.438;21.408;2023-11-21T13:03:25;100043.09;;;10.24;82.94
78313;BME280;67568;47.438;21.408;2023-11-21T13:05:52;100043.91;;;10.24;83.46
78313;BME280;67568;47.438;21.408;2023-11-21T13:08:21;100040.03;;;10.25;83.90
78313;BME280;67568;47.438;21.408;2023-11-21T13:10:53;100041.88;;;10.16;84.08
78313;BME280;67568;47.438;21.408;2023-11-21T13:13:21;100048.25;;;10.17;83.73
78313;BME280;67568;47.438;21.408;2023-11-21T13:16:01;100047.00;;;10.09;84.72
78313;BME280;67568;47.438;21.408;2023-11-21T13:18:28;100039.50;;;9.96;86.10
78313;BME280;67568;47.438;21.408;2023-11-21T13:21:00;100039.00;;;9.94;85.98
78313;BME280;67568;47.438;21.408;2023-11-21T13:23:27;100037.94;;;9.89;86.47
78313;BME280;67568;47.438;21.408;2023-11-21T13:25:54;100036.72;;;9.96;86.18
78313;BME280;67568;47.438;21.408;2023-11-21T13:28:34;100041.25;;;9.91;86.72
78313;BME280;67568;47.438;21.408;2023-11-21T13:31:05;100038.16;;;9.93;86.42
78313;BME280;67568;47.438;21.408;2023-11-21T13:33:32;100038.56;;;9.86;87.17
78313;BME280;67568;47.438;21.408;2023-11-21T13:35:59;100037.03;;;9.80;88.15
78313;BME280;67568;47.438;21.408;2023-11-21T13:38:26;100040.59;;;9.81;87.58
78313;BME280;67568;47.438;21.408;2023-11-21T13:41:02;100038.66;;;9.81;87.76
78313;BME280;67568;47.438;21.408;2023-11-21T13:43:31;100040.44;;;9.58;89.33
78313;BME280;67568;47.438;21.408;2023-11-21T13:45:58;100047.53;;;9.64;88.65
78313;BME280;67568;47.438;21.408;2023-11-21T13:48:25;100048.88;;;9.67;88.47
78313;BME280;67568;47.438;21.408;2023-11-21T13:50:52;100054.94;;;9.69;88.05
78313;BME280;67568;47.438;21.408;2023-11-21T13:53:19;100045.09;;;9.63;88.22
78313;BME280;67568;47.438;21.408;2023-11-21T13:55:46;100050.16;;;9.56;88.00
78313;BME280;67568;47.438;21.408;2023-11-21T13:58:13;100053.53;;;9.53;87.74
78313;BME280;67568;47.438;21.408;2023-11-21T14:00:39;100054.81;;;9.60;87.02
78313;BME280;67568;47.438;21.408;2023-11-21T14:03:06;100053.66;;;9.61;87.16
78313;BME280;67568;47.438;21.408;2023-11-21T14:05:39;100055.34;;;9.62;86.89
78313;BME280;67568;47.438;21.408;2023-11-21T14:08:09;100051.13;;;9.65;86.29
78313;BME280;67568;47.438;21.408;2023-11-21T14:10:36;100050.00;;;9.66;87.32
78313;BME280;67568;47.438;21.408;2023-11-21T14:13:06;100055.69;;;9.56;86.65
78313;BME280;67568;47.438;21.408;2023-11-21T14:18:46;100051.13;;;9.32;87.10
78313;BME280;67568;47.438;21.408;2023-11-21T14:21:13;100041.00;;;9.41;86.93
78313;BME280;67568;47.438;21.408;2023-11-21T14:23:40;100045.72;;;9.41;87.04
78313;BME280;67568;47.438;21.408;2023-11-21T14:26:06;100062.91;;;9.38;87.18
78313;BME280;67568;47.438;21.408;2023-11-21T14:28:33;100056.38;;;9.34;87.68
78313;BME280;67568;47.438;21.408;2023-11-21T14:31:00;100062.09;;;9.37;86.97
78313;BME280;67568;47.438;21.408;2023-11-21T14:33:27;100060.16;;;9.38;87.44